createdAt,value
2017-11-11T00:01:49.263Z,4.60
2017-11-11T00:04:15.523Z,4.50
2017-11-11T00:06:42.583Z,4.50
2017-11-11T00:09:08.843Z,4.50
2017-11-11T00:11:35.859Z,4.60
2017-11-11T00:14:02.141Z,4.50
2017-11-11T00:16:29.136Z,4.50
2017-11-11T00:18:55.431Z,4.50
2017-11-11T00:21:22.444Z,4.50
2017-11-11T00:23:48.732Z,4.50
2017-11-11T00:26:14.984Z,4.40
2017-11-11T00:28:41.306Z,4.40
2017-11-11T00:31:07.605Z,4.30
2017-11-11T00:33:33.904Z,4.30
2017-11-11T00:36:00.911Z,4.20
2017-11-11T00:38:28.227Z,4.20
2017-11-11T00:40:54.555Z,4.20
2017-11-11T00:43:20.828Z,4.30
2017-11-11T00:45:47.148Z,4.30
2017-11-11T00:48:14.208Z,4.30
2017-11-11T00:50:40.500Z,4.30
2017-11-11T00:53:06.779Z,4.30
2017-11-11T00:55:33.044Z,4.20
2017-11-11T00:58:00.427Z,4.30
2017-11-11T01:00:26.691Z,4.20
2017-11-11T01:02:53.002Z,4.30
2017-11-11T01:05:19.279Z,4.20
2017-11-11T01:07:45.551Z,4.30
2017-11-11T01:10:11.824Z,4.20
2017-11-11T01:12:38.073Z,4.20
2017-11-11T01:15:04.400Z,4.20
2017-11-11T01:17:31.403Z,4.20
2017-11-11T01:19:57.670Z,4.10
2017-11-11T01:22:24.714Z,4.20
2017-11-11T01:24:51.025Z,4.20
2017-11-11T01:27:17.287Z,4.20
2017-11-11T01:29:43.591Z,4.20
2017-11-11T01:32:09.867Z,4.10
2017-11-11T01:34:37.180Z,4.20
2017-11-11T01:37:03.504Z,4.10
2017-11-11T01:39:30.536Z,4.20
2017-11-11T01:41:56.825Z,4.20
2017-11-11T01:44:23.136Z,4.20
2017-11-11T01:46:49.420Z,4.20
2017-11-11T01:49:15.728Z,4.20
2017-11-11T01:51:42.767Z,4.10
2017-11-11T01:54:09.058Z,4.10
2017-11-11T01:56:35.399Z,4.10
2017-11-11T01:59:01.744Z,4.10
2017-11-11T02:01:28.076Z,4.00
2017-11-11T02:03:54.424Z,4.10
2017-11-11T02:06:20.740Z,4.10
2017-11-11T02:08:47.807Z,4.10
2017-11-11T02:11:14.143Z,4.00
2017-11-11T02:13:41.176Z,4.00
2017-11-11T02:16:07.443Z,4.00
2017-11-11T02:18:34.528Z,4.00
2017-11-11T02:21:01.580Z,4.10
2017-11-11T02:23:28.603Z,4.10
2017-11-11T02:25:54.960Z,4.00
2017-11-11T02:28:21.284Z,4.10
2017-11-11T02:30:47.610Z,4.10
2017-11-11T02:33:13.943Z,4.10
2017-11-11T02:35:40.275Z,4.10
2017-11-11T02:38:06.599Z,4.10
2017-11-11T02:40:32.928Z,4.10
2017-11-11T02:42:59.232Z,4.10
2017-11-11T02:45:26.320Z,4.10
2017-11-11T02:47:52.620Z,4.10
2017-11-11T02:50:18.967Z,4.10
2017-11-11T02:52:45.259Z,4.10
2017-11-11T02:55:11.574Z,4.10
2017-11-11T02:57:37.867Z,4.10
2017-11-11T03:00:04.148Z,4.10
2017-11-11T03:02:30.433Z,4.10
2017-11-11T03:04:56.754Z,4.10
2017-11-11T03:07:23.071Z,4.10
2017-11-11T03:09:50.451Z,4.10
2017-11-11T03:12:16.725Z,4.10
2017-11-11T03:14:43.044Z,4.10
2017-11-11T03:17:09.328Z,4.00
2017-11-11T03:19:35.607Z,4.10
2017-11-11T03:22:01.916Z,4.10
2017-11-11T03:24:28.240Z,4.10
2017-11-11T03:26:54.535Z,4.10
2017-11-11T03:29:20.867Z,4.20
2017-11-11T03:31:47.115Z,4.20
2017-11-11T03:34:13.429Z,4.20
2017-11-11T03:36:39.687Z,4.10
2017-11-11T03:39:05.990Z,4.10
2017-11-11T03:41:32.259Z,4.10
2017-11-11T03:43:58.522Z,4.10
2017-11-11T03:46:24.835Z,4.10
2017-11-11T03:48:51.108Z,4.00
2017-11-11T03:51:17.403Z,3.90
2017-11-11T03:53:43.691Z,3.90
2017-11-11T03:56:09.990Z,3.90
2017-11-11T03:58:36.290Z,3.80
2017-11-11T04:01:02.567Z,3.80
2017-11-11T04:03:28.843Z,3.70
2017-11-11T04:05:55.144Z,3.70
2017-11-11T04:08:21.423Z,3.80
2017-11-11T04:10:47.759Z,3.80
2017-11-11T04:13:14.033Z,3.80
2017-11-11T04:15:40.320Z,3.90
2017-11-11T04:18:06.631Z,4.00
2017-11-11T04:20:33.647Z,4.10
2017-11-11T04:22:59.895Z,4.10
2017-11-11T04:25:26.215Z,4.00
2017-11-11T04:27:52.463Z,3.90
2017-11-11T04:30:18.776Z,3.90
2017-11-11T04:32:45.027Z,3.90
2017-11-11T04:35:11.323Z,4.00
2017-11-11T04:37:37.600Z,3.90
2017-11-11T04:40:03.911Z,3.90
2017-11-11T04:42:30.179Z,4.10
2017-11-11T04:44:56.459Z,4.10
2017-11-11T04:47:22.766Z,4.20
2017-11-11T04:49:49.072Z,4.30
2017-11-11T04:52:15.359Z,4.20
2017-11-11T04:54:41.691Z,4.00
2017-11-11T04:57:08.004Z,3.90
2017-11-11T04:59:35.053Z,3.80
2017-11-11T05:02:01.324Z,3.80
2017-11-11T05:04:27.607Z,3.80
2017-11-11T05:06:53.924Z,4.00
2017-11-11T05:09:20.223Z,4.00
2017-11-11T05:11:46.511Z,3.80
2017-11-11T05:14:12.908Z,3.70
2017-11-11T05:16:39.219Z,3.70
2017-11-11T05:19:05.519Z,3.70
2017-11-11T05:21:31.804Z,3.70
2017-11-11T05:23:58.139Z,3.70
2017-11-11T05:26:24.431Z,3.80
2017-11-11T05:28:50.711Z,3.90
2017-11-11T05:31:17.007Z,3.80
2017-11-11T05:33:45.118Z,3.90
2017-11-11T05:36:11.396Z,3.90
2017-11-11T05:38:37.672Z,4.00
2017-11-11T05:41:03.966Z,4.10
2017-11-11T05:43:30.241Z,4.10
2017-11-11T05:45:57.294Z,4.30
2017-11-11T05:48:23.561Z,4.30
2017-11-11T05:50:49.867Z,4.40
2017-11-11T05:53:16.129Z,4.50
2017-11-11T05:55:43.139Z,4.60
2017-11-11T05:58:09.416Z,4.60
2017-11-11T06:00:36.259Z,4.70
2017-11-11T06:03:02.572Z,4.70
2017-11-11T06:05:28.877Z,4.70
2017-11-11T06:07:55.899Z,4.80
2017-11-11T06:10:22.167Z,4.80
2017-11-11T06:12:48.487Z,4.80
2017-11-11T06:15:14.749Z,4.80
2017-11-11T06:17:42.879Z,4.90
2017-11-11T06:20:09.165Z,4.90
2017-11-11T06:22:35.432Z,4.90
2017-11-11T06:25:01.732Z,4.90
2017-11-11T06:27:27.997Z,4.90
2017-11-11T06:29:55.056Z,5.00
2017-11-11T06:32:21.319Z,5.00
2017-11-11T06:34:47.596Z,5.00
2017-11-11T06:37:13.880Z,5.00
2017-11-11T06:39:40.900Z,5.00
2017-11-11T06:42:07.188Z,5.00
2017-11-11T06:44:33.497Z,5.00
2017-11-11T06:46:59.755Z,5.00
2017-11-11T06:49:26.059Z,5.00
2017-11-11T06:51:53.068Z,5.10
2017-11-11T06:54:19.392Z,5.10
2017-11-11T06:56:45.669Z,5.10
2017-11-11T06:59:11.963Z,5.20
2017-11-11T07:01:38.269Z,5.20
2017-11-11T07:04:04.607Z,5.20
2017-11-11T07:06:31.678Z,5.20
2017-11-11T07:08:58.010Z,5.20
2017-11-11T07:11:24.301Z,5.30
2017-11-11T07:13:50.611Z,5.30
2017-11-11T07:16:17.672Z,5.40
2017-11-11T07:18:43.975Z,5.30
2017-11-11T07:21:10.272Z,5.40
2017-11-11T07:23:36.552Z,5.40
2017-11-11T07:26:02.863Z,5.50
2017-11-11T07:28:29.223Z,5.50
2017-11-11T07:30:55.505Z,5.50
2017-11-11T07:33:21.768Z,5.60
2017-11-11T07:35:48.086Z,5.60
2017-11-11T07:38:15.107Z,5.60
2017-11-11T07:40:41.416Z,5.60
2017-11-11T07:43:07.703Z,5.60
2017-11-11T07:45:33.980Z,5.60
2017-11-11T07:48:00.280Z,5.70
2017-11-11T07:50:26.560Z,5.70
2017-11-11T07:52:52.822Z,5.70
2017-11-11T07:55:19.114Z,5.80
2017-11-11T07:57:45.396Z,5.70
2017-11-11T08:00:12.435Z,5.90
2017-11-11T08:02:39.455Z,5.90
2017-11-11T08:05:05.739Z,5.90
2017-11-11T08:07:32.006Z,5.90
2017-11-11T08:09:58.299Z,5.90
2017-11-11T08:12:24.595Z,6.00
2017-11-11T08:14:50.872Z,6.00
2017-11-11T08:17:17.164Z,6.00
2017-11-11T08:19:43.443Z,6.10
2017-11-11T08:22:09.728Z,6.10
2017-11-11T08:24:36.047Z,6.10
2017-11-11T08:27:02.346Z,6.10
2017-11-11T08:29:28.668Z,6.10
2017-11-11T08:31:55.004Z,6.10
2017-11-11T08:34:22.052Z,6.20
2017-11-11T08:36:48.340Z,6.20
2017-11-11T08:39:14.676Z,6.20
2017-11-11T08:41:40.973Z,6.20
2017-11-11T08:44:07.263Z,6.20
2017-11-11T08:46:33.584Z,6.10
2017-11-11T08:48:59.900Z,6.10
2017-11-11T08:51:26.160Z,6.20
2017-11-11T08:53:52.456Z,6.20
2017-11-11T08:56:18.733Z,6.20
2017-11-11T08:58:45.771Z,6.20
2017-11-11T09:01:12.064Z,6.20
2017-11-11T09:03:38.361Z,6.20
2017-11-11T09:06:05.691Z,6.10
2017-11-11T09:08:31.991Z,6.20
2017-11-11T09:10:59.011Z,6.30
2017-11-11T09:13:25.291Z,6.30
2017-11-11T09:15:51.571Z,6.30
2017-11-11T09:18:17.864Z,6.30
2017-11-11T09:20:44.111Z,6.30
2017-11-11T09:23:10.396Z,6.40
2017-11-11T09:25:36.701Z,6.50
2017-11-11T09:28:03.720Z,6.60
2017-11-11T09:30:30.000Z,6.60
2017-11-11T09:32:56.299Z,6.60
2017-11-11T09:35:22.590Z,6.60
2017-11-11T09:37:48.860Z,6.60
2017-11-11T09:40:15.160Z,6.70
2017-11-11T09:42:41.439Z,6.70
2017-11-11T09:45:07.724Z,6.70
2017-11-11T09:47:33.991Z,6.70
2017-11-11T09:50:00.291Z,6.70
2017-11-11T09:52:26.579Z,6.70
2017-11-11T09:54:52.852Z,6.70
2017-11-11T09:57:19.179Z,6.70
2017-11-11T09:59:45.471Z,6.70
2017-11-11T10:02:11.775Z,6.70
2017-11-11T10:04:38.056Z,6.80
2017-11-11T10:07:04.364Z,6.80
2017-11-11T10:09:30.660Z,6.80
2017-11-11T10:11:57.699Z,6.80
2017-11-11T10:14:24.023Z,6.80
2017-11-11T10:16:50.296Z,6.90
2017-11-11T10:19:17.441Z,6.90
2017-11-11T10:21:43.754Z,6.90
2017-11-11T10:24:10.136Z,6.90
2017-11-11T10:26:37.171Z,7.00
2017-11-11T10:29:03.463Z,6.90
2017-11-11T10:31:29.873Z,7.00
2017-11-11T10:33:56.180Z,7.00
2017-11-11T10:36:22.498Z,7.00
2017-11-11T10:38:48.924Z,7.10
2017-11-11T10:41:15.218Z,7.10
2017-11-11T10:43:41.568Z,7.10
2017-11-11T10:46:07.895Z,7.10
2017-11-11T10:48:34.191Z,7.10
2017-11-11T10:51:00.473Z,7.20
2017-11-11T10:53:27.820Z,7.30
2017-11-11T10:55:54.143Z,7.30
2017-11-11T10:58:20.444Z,7.30
2017-11-11T11:00:46.811Z,7.30
2017-11-11T11:03:13.167Z,7.30
2017-11-11T11:05:39.509Z,7.30
2017-11-11T11:08:05.839Z,7.30
2017-11-11T11:10:32.151Z,7.20
2017-11-11T11:12:58.455Z,7.30
2017-11-11T11:15:24.776Z,7.30
2017-11-11T11:17:51.071Z,7.40
2017-11-11T11:20:17.352Z,7.30
2017-11-11T11:22:44.413Z,7.30
2017-11-11T11:25:11.823Z,7.30
2017-11-11T11:27:38.153Z,7.30
2017-11-11T11:30:04.451Z,7.30
2017-11-11T11:32:30.816Z,7.30
2017-11-11T11:34:57.168Z,7.30
2017-11-11T11:37:23.459Z,7.40
2017-11-11T11:39:50.536Z,7.30
2017-11-11T11:42:16.812Z,7.40
2017-11-11T11:44:43.273Z,7.30
2017-11-11T11:47:09.604Z,7.30
2017-11-11T11:49:35.890Z,7.30
2017-11-11T11:52:02.949Z,7.30
2017-11-11T11:54:29.272Z,7.30
2017-11-11T11:56:55.561Z,7.30
2017-11-11T11:59:21.897Z,7.30
2017-11-11T12:01:48.195Z,7.30
2017-11-11T12:04:14.492Z,7.20
2017-11-11T12:06:40.896Z,7.30
2017-11-11T12:09:07.391Z,7.20
2017-11-11T12:11:34.109Z,7.30
2017-11-11T12:14:00.649Z,7.30
2017-11-11T12:16:27.046Z,7.30
2017-11-11T12:18:53.376Z,7.20
2017-11-11T12:21:19.656Z,7.20
2017-11-11T12:23:46.221Z,7.20
2017-11-11T12:26:13.082Z,7.30
2017-11-11T12:28:39.485Z,7.20
2017-11-11T12:31:05.812Z,7.20
2017-11-11T12:33:32.124Z,7.30
2017-11-11T12:35:58.659Z,7.30
2017-11-11T12:38:25.011Z,7.30
2017-11-11T12:40:51.493Z,7.30
2017-11-11T12:43:18.296Z,7.30
2017-11-11T12:45:44.772Z,7.30
2017-11-11T12:48:11.149Z,7.30
2017-11-11T12:50:37.674Z,7.30
2017-11-11T12:53:04.812Z,7.30
2017-11-11T12:55:32.998Z,7.30
2017-11-11T12:57:59.838Z,7.30
2017-11-11T13:00:26.374Z,7.30
2017-11-11T13:02:52.846Z,7.40
2017-11-11T13:05:19.538Z,7.40
2017-11-11T13:07:46.860Z,7.40
2017-11-11T13:10:14.636Z,7.40
2017-11-11T13:12:41.201Z,7.40
2017-11-11T13:15:08.345Z,7.50
2017-11-11T13:17:34.840Z,7.40
2017-11-11T13:20:01.630Z,7.40
2017-11-11T13:22:28.112Z,7.50
2017-11-11T13:24:54.562Z,7.40
2017-11-11T13:27:21.048Z,7.40
2017-11-11T13:29:47.459Z,7.50
2017-11-11T13:32:13.840Z,7.50
2017-11-11T13:34:41.455Z,7.50
2017-11-11T13:37:08.823Z,7.50
2017-11-11T13:39:35.768Z,7.50
2017-11-11T13:42:02.428Z,7.60
2017-11-11T13:44:29.811Z,7.60
2017-11-11T13:46:56.446Z,7.60
2017-11-11T13:49:22.800Z,7.60
2017-11-11T13:51:50.041Z,7.70
2017-11-11T13:54:16.603Z,7.70
2017-11-11T13:56:42.948Z,7.70
2017-11-11T13:59:09.320Z,7.70
2017-11-11T14:01:35.616Z,7.70
2017-11-11T14:04:02.469Z,7.80
2017-11-11T14:06:29.837Z,7.70
2017-11-11T14:08:57.208Z,7.80
2017-11-11T14:11:24.395Z,7.80
2017-11-11T14:13:51.223Z,7.80
2017-11-11T14:16:18.048Z,7.80
2017-11-11T14:18:44.927Z,7.80
2017-11-11T14:21:12.192Z,7.80
2017-11-11T14:23:39.764Z,7.80
2017-11-11T14:26:07.131Z,7.80
2017-11-11T14:28:34.191Z,7.70
2017-11-11T14:31:01.046Z,7.70
2017-11-11T14:33:27.641Z,7.70
2017-11-11T14:35:54.193Z,7.70
2017-11-11T14:38:20.789Z,7.70
2017-11-11T14:40:48.214Z,7.80
2017-11-11T14:43:14.793Z,7.80
2017-11-11T14:45:43.810Z,7.80
2017-11-11T14:48:10.411Z,7.80
2017-11-11T14:50:36.773Z,7.80
2017-11-11T14:53:03.346Z,7.70
2017-11-11T14:55:29.802Z,7.70
2017-11-11T14:57:56.998Z,7.80
2017-11-11T15:00:23.523Z,7.80
2017-11-11T15:02:50.130Z,7.80
2017-11-11T15:05:17.382Z,7.80
2017-11-11T15:07:44.273Z,7.80
2017-11-11T15:10:10.944Z,7.80
2017-11-11T15:12:37.460Z,7.80
2017-11-11T15:15:04.586Z,7.70
2017-11-11T15:17:31.270Z,7.70
2017-11-11T15:19:57.684Z,7.80
2017-11-11T15:22:24.082Z,7.80
2017-11-11T15:24:50.495Z,7.80
2017-11-11T15:27:17.628Z,7.80
2017-11-11T15:29:44.249Z,7.80
2017-11-11T15:32:10.619Z,7.80
2017-11-11T15:34:37.493Z,7.80
2017-11-11T15:37:04.686Z,7.80
2017-11-11T15:39:31.381Z,7.80
2017-11-11T15:41:58.133Z,7.90
2017-11-11T15:44:25.472Z,7.70
2017-11-11T15:46:52.213Z,7.70
2017-11-11T15:49:19.072Z,7.70
2017-11-11T15:51:45.716Z,7.70
2017-11-11T15:54:12.657Z,7.60
2017-11-11T15:56:40.137Z,7.70
2017-11-11T15:59:07.331Z,7.70
2017-11-11T16:01:33.658Z,7.70
2017-11-11T16:04:00.279Z,7.70
2017-11-11T16:06:27.217Z,7.70
2017-11-11T16:08:53.774Z,7.70
2017-11-11T16:11:20.417Z,7.70
2017-11-11T16:13:46.968Z,7.70
2017-11-11T16:16:13.847Z,7.70
2017-11-11T16:18:41.457Z,7.60
2017-11-11T16:21:08.103Z,7.60
2017-11-11T16:23:35.128Z,7.60
2017-11-11T16:26:02.189Z,7.60
2017-11-11T16:28:29.754Z,7.60
2017-11-11T16:30:57.511Z,7.50
2017-11-11T16:33:25.110Z,7.50
2017-11-11T16:35:53.191Z,7.50
2017-11-11T16:38:20.659Z,7.50
2017-11-11T16:40:48.435Z,7.50
2017-11-11T16:43:15.642Z,7.50
2017-11-11T16:45:43.216Z,7.50
2017-11-11T16:48:10.946Z,7.40
2017-11-11T16:50:38.928Z,7.40
2017-11-11T16:53:07.278Z,7.40
2017-11-11T16:55:35.507Z,7.40
2017-11-11T16:58:04.168Z,7.50
2017-11-11T17:00:32.985Z,7.50
2017-11-11T17:03:00.881Z,7.60
2017-11-11T17:05:29.165Z,7.60
2017-11-11T17:07:58.105Z,7.60
2017-11-11T17:10:27.943Z,7.60
2017-11-11T17:12:56.537Z,7.60
2017-11-11T17:15:25.347Z,7.70
2017-11-11T17:17:54.196Z,7.70
2017-11-11T17:20:24.059Z,7.80
2017-11-11T17:22:53.274Z,7.80
2017-11-11T17:25:22.180Z,7.80
2017-11-11T17:27:51.277Z,7.80
2017-11-11T17:30:20.500Z,7.80
2017-11-11T17:32:49.137Z,7.80
2017-11-11T17:35:18.211Z,7.80
2017-11-11T17:37:47.978Z,7.80
2017-11-11T17:40:18.370Z,7.80
2017-11-11T17:42:46.928Z,7.80
2017-11-11T17:45:15.397Z,7.80
2017-11-11T17:47:44.374Z,7.70
2017-11-11T17:50:14.076Z,7.70
2017-11-11T17:52:43.175Z,7.70
2017-11-11T17:55:12.004Z,7.70
2017-11-11T17:57:39.744Z,7.70
2017-11-11T18:00:09.061Z,7.60
2017-11-11T18:02:37.095Z,7.60
2017-11-11T18:05:05.861Z,7.60
2017-11-11T18:07:33.685Z,7.70
2017-11-11T18:10:03.358Z,7.60
2017-11-11T18:12:31.273Z,7.60
2017-11-11T18:14:59.145Z,7.60
2017-11-11T18:17:27.899Z,7.60
2017-11-11T18:19:57.327Z,7.60
2017-11-11T18:22:27.115Z,7.60
2017-11-11T18:24:55.019Z,7.60
2017-11-11T18:27:22.748Z,7.60
2017-11-11T18:29:51.455Z,7.50
2017-11-11T18:32:19.257Z,7.50
2017-11-11T18:34:47.244Z,7.50
2017-11-11T18:37:15.078Z,7.40
2017-11-11T18:39:42.956Z,7.40
2017-11-11T18:42:10.845Z,7.40
2017-11-11T18:44:38.884Z,7.30
2017-11-11T18:47:06.715Z,7.30
2017-11-11T18:49:34.558Z,7.30
2017-11-11T18:52:03.090Z,7.20
2017-11-11T18:54:31.074Z,7.20
2017-11-11T18:56:58.867Z,7.20
2017-11-11T18:59:26.746Z,7.20
2017-11-11T19:01:55.469Z,7.20
2017-11-11T19:04:24.159Z,7.20
2017-11-11T19:06:52.792Z,7.20
2017-11-11T19:09:20.725Z,7.20
2017-11-11T19:11:48.522Z,7.20
2017-11-11T19:14:16.559Z,7.20
2017-11-11T19:16:44.498Z,7.30
2017-11-11T19:19:13.060Z,7.30
2017-11-11T19:21:41.357Z,7.30
2017-11-11T19:24:09.881Z,7.30
2017-11-11T19:26:37.810Z,7.30
2017-11-11T19:29:05.656Z,7.30
2017-11-11T19:31:33.594Z,7.30
2017-11-11T19:34:02.297Z,7.30
2017-11-11T19:36:30.990Z,7.30
2017-11-11T19:38:59.642Z,7.20
2017-11-11T19:41:27.407Z,7.20
2017-11-11T19:43:56.027Z,7.10
2017-11-11T19:46:23.889Z,7.10
2017-11-11T19:48:51.718Z,7.00
2017-11-11T19:51:20.409Z,6.80
2017-11-11T19:53:48.498Z,6.80
2017-11-11T19:56:16.294Z,6.80
2017-11-11T19:58:44.934Z,6.60
2017-11-11T20:01:13.938Z,6.70
2017-11-11T20:03:41.850Z,6.70
2017-11-11T20:06:11.686Z,6.70
2017-11-11T20:08:40.229Z,6.60
2017-11-11T20:11:08.837Z,6.60
2017-11-11T20:13:37.542Z,6.70
2017-11-11T20:16:05.442Z,6.60
2017-11-11T20:18:33.393Z,6.70
2017-11-11T20:21:01.464Z,6.70
2017-11-11T20:23:29.685Z,6.70
2017-11-11T20:25:57.583Z,6.60
2017-11-11T20:28:26.698Z,6.60
2017-11-11T20:30:55.906Z,6.60
2017-11-11T20:33:24.905Z,6.50
2017-11-11T20:35:53.980Z,6.50
2017-11-11T20:38:22.978Z,6.50
2017-11-11T20:40:51.686Z,6.50
2017-11-11T20:43:20.564Z,6.50
2017-11-11T20:45:49.285Z,6.40
2017-11-11T20:48:18.422Z,6.50
2017-11-11T20:50:47.542Z,6.50
2017-11-11T20:53:16.562Z,6.60
2017-11-11T20:55:46.046Z,6.60
2017-11-11T20:58:14.803Z,6.60
2017-11-11T21:00:43.213Z,6.60
2017-11-11T21:03:12.045Z,6.70
2017-11-11T21:05:40.997Z,6.70
2017-11-11T21:08:11.445Z,6.60
2017-11-11T21:10:40.455Z,6.60
2017-11-11T21:13:10.169Z,6.70
2017-11-11T21:15:37.983Z,6.70
2017-11-11T21:18:06.761Z,6.70
2017-11-11T21:20:35.694Z,6.70
2017-11-11T21:23:04.566Z,6.70
2017-11-11T21:25:33.612Z,6.60
2017-11-11T21:28:02.296Z,6.60
2017-11-11T21:30:31.298Z,6.60
2017-11-11T21:32:59.162Z,6.50
2017-11-11T21:35:27.061Z,6.60
2017-11-11T21:37:54.905Z,6.60
2017-11-11T21:40:24.055Z,6.60
2017-11-11T21:42:52.982Z,6.60
2017-11-11T21:45:21.706Z,6.60
2017-11-11T21:47:50.862Z,6.60
2017-11-11T21:50:20.233Z,6.60
2017-11-11T21:52:49.240Z,6.50
2017-11-11T21:55:18.306Z,6.50
2017-11-11T21:57:47.689Z,6.40
2017-11-11T22:00:16.969Z,6.40
2017-11-11T22:02:45.495Z,6.30
2017-11-11T22:05:14.488Z,6.30
2017-11-11T22:07:43.374Z,6.30
2017-11-11T22:10:12.870Z,6.20
2017-11-11T22:12:41.923Z,6.20
2017-11-11T22:15:10.489Z,6.30
2017-11-11T22:17:39.378Z,6.30
2017-11-11T22:20:09.634Z,6.40
2017-11-11T22:22:38.269Z,6.40
2017-11-11T22:25:08.059Z,6.40
2017-11-11T22:27:36.732Z,6.40
2017-11-11T22:30:04.560Z,6.50
2017-11-11T22:32:34.496Z,6.50
2017-11-11T22:35:02.246Z,6.50
2017-11-11T22:37:30.008Z,6.50
2017-11-11T22:39:58.119Z,6.50
2017-11-11T22:42:25.836Z,6.50
2017-11-11T22:44:54.512Z,6.50
2017-11-11T22:47:22.246Z,6.50
2017-11-11T22:49:51.082Z,6.50
2017-11-11T22:52:19.725Z,6.50
2017-11-11T22:54:48.418Z,6.60
2017-11-11T22:57:16.976Z,6.60
2017-11-11T22:59:45.823Z,6.60
2017-11-11T23:02:15.799Z,6.60
2017-11-11T23:04:44.519Z,6.60
2017-11-11T23:07:13.943Z,6.60
2017-11-11T23:09:43.821Z,6.60
2017-11-11T23:12:12.953Z,6.60
2017-11-11T23:14:41.638Z,6.60
2017-11-11T23:17:09.411Z,6.60
2017-11-11T23:19:36.942Z,6.60
2017-11-11T23:22:04.405Z,6.60
2017-11-11T23:24:31.078Z,6.60
2017-11-11T23:26:57.415Z,6.60
2017-11-11T23:29:23.759Z,6.60
2017-11-11T23:31:50.060Z,6.50
2017-11-11T23:34:16.354Z,6.60
2017-11-11T23:36:42.656Z,6.60
2017-11-11T23:39:08.947Z,6.70
2017-11-11T23:41:35.227Z,6.60
2017-11-11T23:44:01.499Z,6.50
2017-11-11T23:46:27.795Z,6.50
2017-11-11T23:48:54.063Z,6.40
2017-11-11T23:51:20.355Z,6.40
2017-11-11T23:53:46.685Z,6.40
2017-11-11T23:56:12.991Z,6.40
2017-11-11T23:58:39.312Z,6.30
